NKS24 KAKR-KORF
Flight info
| Callsign | NKS24 |
|---|---|
| Flight time | 1h 1m |
| Altitude | 28000 |
| Route | HLG VERNI FANPO HCM OUTLA1 |
| Aircraft | A20N/M-SDE2E3FGHIRWXY/LB1 |
Departure
| Time | 2026-04-27 00:51 |
|---|---|
| Airport | Akron Fulton International Airport (KAKR) |
Arrival
| Time | 2026-04-27 01:53 |
|---|---|
| Airport | Norfolk International Airport (KORF) |
| Time | Latitude | Longitude | Altitude | Speed | Heading |
|---|---|---|---|---|---|
| 2026-04-27 00:30 | 41.04126 | -81.46350 | 1059 ft | 0 kts | 282° |
| 2026-04-27 00:39 | 41.04126 | -81.46351 | 1059 ft | 0 kts | 282° |
| 2026-04-27 00:39 | 41.04127 | -81.46355 | 1059 ft | 1 kts | 282° |
| 2026-04-27 00:39 | 41.04127 | -81.46362 | 1059 ft | 1 kts | 276° |
| 2026-04-27 00:39 | 41.04127 | -81.46368 | 1059 ft | 1 kts | 268° |
| 2026-04-27 00:40 | 41.04126 | -81.46374 | 1059 ft | 1 kts | 259° |
| 2026-04-27 00:40 | 41.04115 | -81.46399 | 1060 ft | 5 kts | 229° |
| 2026-04-27 00:40 | 41.04093 | -81.46433 | 1063 ft | 5 kts | 234° |
| 2026-04-27 00:40 | 41.04076 | -81.46463 | 1063 ft | 8 kts | 221° |
| 2026-04-27 00:41 | 41.04002 | -81.46484 | 1061 ft | 12 kts | 193° |
| 2026-04-27 00:41 | 41.03944 | -81.46578 | 1058 ft | 15 kts | 243° |
| 2026-04-27 00:41 | 41.03891 | -81.46713 | 1058 ft | 17 kts | 243° |
| 2026-04-27 00:41 | 41.03832 | -81.46860 | 1057 ft | 19 kts | 242° |
| 2026-04-27 00:42 | 41.03767 | -81.47018 | 1058 ft | 20 kts | 242° |
| 2026-04-27 00:42 | 41.03700 | -81.47184 | 1058 ft | 20 kts | 244° |
| 2026-04-27 00:42 | 41.03637 | -81.47347 | 1059 ft | 20 kts | 242° |
| 2026-04-27 00:42 | 41.03571 | -81.47509 | 1059 ft | 19 kts | 242° |
| 2026-04-27 00:43 | 41.03513 | -81.47653 | 1060 ft | 17 kts | 242° |
| 2026-04-27 00:43 | 41.03450 | -81.47745 | 1060 ft | 13 kts | 194° |
| 2026-04-27 00:43 | 41.03379 | -81.47750 | 1062 ft | 8 kts | 167° |
| 2026-04-27 00:43 | 41.03367 | -81.47692 | 1062 ft | 8 kts | 64° |
| 2026-04-27 00:44 | 41.03380 | -81.47664 | 1064 ft | 0 kts | 59° |
| 2026-04-27 00:51 | 41.03380 | -81.47663 | 1063 ft | 5 kts | 59° |
| 2026-04-27 00:51 | 41.03588 | -81.47176 | 1060 ft | 115 kts | 62° |
| 2026-04-27 00:51 | 41.04089 | -81.45935 | 1561 ft | 170 kts | 62° |
| 2026-04-27 00:51 | 41.04711 | -81.44374 | 2222 ft | 217 kts | 64° |
| 2026-04-27 00:52 | 41.05472 | -81.42395 | 2800 ft | 266 kts | 64° |
| 2026-04-27 00:52 | 41.05894 | -81.39918 | 3731 ft | 278 kts | 98° |
| 2026-04-27 00:52 | 41.05073 | -81.37845 | 4752 ft | 245 kts | 139° |
| 2026-04-27 00:52 | 41.03527 | -81.37277 | 5262 ft | 235 kts | 191° |
| 2026-04-27 00:53 | 41.01961 | -81.37644 | 5648 ft | 223 kts | 176° |
| 2026-04-27 00:53 | 41.00548 | -81.37070 | 5943 ft | 211 kts | 134° |
| 2026-04-27 00:53 | 40.99450 | -81.35937 | 6401 ft | 193 kts | 149° |
| 2026-04-27 00:53 | 40.98416 | -81.34965 | 6820 ft | 175 kts | 144° |
| 2026-04-27 00:54 | 40.97349 | -81.34207 | 7204 ft | 187 kts | 152° |
| 2026-04-27 00:54 | 40.96143 | -81.33173 | 7739 ft | 226 kts | 137° |
| 2026-04-27 00:54 | 40.94918 | -81.31617 | 8235 ft | 263 kts | 132° |
| 2026-04-27 00:54 | 40.93579 | -81.29754 | 8862 ft | 292 kts | 132° |
| 2026-04-27 00:55 | 40.92125 | -81.27815 | 9411 ft | 298 kts | 134° |
| 2026-04-27 00:55 | 40.90604 | -81.25936 | 9517 ft | 298 kts | 136° |
| 2026-04-27 00:55 | 40.89046 | -81.24137 | 9510 ft | 296 kts | 138° |
| 2026-04-27 00:55 | 40.87385 | -81.22584 | 9409 ft | 294 kts | 153° |
| 2026-04-27 00:56 | 40.85401 | -81.21498 | 9369 ft | 332 kts | 158° |
| 2026-04-27 00:56 | 40.83150 | -81.20239 | 9679 ft | 366 kts | 154° |
| 2026-04-27 00:56 | 40.80880 | -81.18597 | 10315 ft | 367 kts | 148° |
| 2026-04-27 00:56 | 40.78871 | -81.16803 | 10783 ft | 334 kts | 143° |
| 2026-04-27 00:57 | 40.77070 | -81.14952 | 10999 ft | 325 kts | 140° |
| 2026-04-27 00:57 | 40.75375 | -81.13057 | 11036 ft | 323 kts | 138° |
| 2026-04-27 00:57 | 40.73691 | -81.11098 | 11033 ft | 323 kts | 137° |
| 2026-04-27 00:57 | 40.72013 | -81.09121 | 11035 ft | 324 kts | 137° |
| 2026-04-27 00:58 | 40.70329 | -81.07146 | 11068 ft | 325 kts | 137° |
| 2026-04-27 00:58 | 40.68549 | -81.05071 | 11432 ft | 358 kts | 138° |
| 2026-04-27 00:58 | 40.66604 | -81.02824 | 11938 ft | 384 kts | 138° |
| 2026-04-27 00:58 | 40.64545 | -81.00464 | 12445 ft | 399 kts | 139° |
| 2026-04-27 00:59 | 40.62430 | -80.98053 | 12958 ft | 405 kts | 139° |
| 2026-04-27 00:59 | 40.60293 | -80.95624 | 13478 ft | 408 kts | 139° |
| 2026-04-27 00:59 | 40.58134 | -80.93174 | 14001 ft | 411 kts | 139° |
| 2026-04-27 00:59 | 40.55961 | -80.90709 | 14483 ft | 414 kts | 139° |
| 2026-04-27 01:00 | 40.53772 | -80.88227 | 14952 ft | 418 kts | 139° |
| 2026-04-27 01:00 | 40.51556 | -80.85714 | 15439 ft | 422 kts | 139° |
| 2026-04-27 01:00 | 40.49325 | -80.83185 | 15931 ft | 426 kts | 139° |
| 2026-04-27 01:00 | 40.47071 | -80.80632 | 16429 ft | 429 kts | 139° |
| 2026-04-27 01:01 | 40.44803 | -80.78066 | 16944 ft | 433 kts | 140° |
| 2026-04-27 01:01 | 40.42513 | -80.75477 | 17466 ft | 436 kts | 140° |
| 2026-04-27 01:01 | 40.40205 | -80.72870 | 17989 ft | 440 kts | 140° |
| 2026-04-27 01:01 | 40.37876 | -80.70243 | 18523 ft | 444 kts | 140° |
| 2026-04-27 01:02 | 40.36291 | -80.68457 | 18830 ft | 446 kts | 140° |
| 2026-04-27 01:02 | 40.33162 | -80.64933 | 19458 ft | 450 kts | 140° |
| 2026-04-27 01:02 | 40.31547 | -80.63116 | 19783 ft | 452 kts | 140° |
| 2026-04-27 01:02 | 40.29155 | -80.60427 | 20289 ft | 455 kts | 140° |
| 2026-04-27 01:03 | 40.26774 | -80.57750 | 20779 ft | 458 kts | 140° |
| 2026-04-27 01:03 | 40.24362 | -80.54924 | 21285 ft | 462 kts | 137° |
| 2026-04-27 01:03 | 40.22015 | -80.52021 | 21810 ft | 465 kts | 136° |
| 2026-04-27 01:03 | 40.19682 | -80.49061 | 22336 ft | 469 kts | 136° |
| 2026-04-27 01:04 | 40.17371 | -80.46104 | 22863 ft | 473 kts | 136° |
| 2026-04-27 01:04 | 40.15008 | -80.43086 | 23406 ft | 476 kts | 136° |
| 2026-04-27 01:04 | 40.12626 | -80.40059 | 23932 ft | 480 kts | 136° |
| 2026-04-27 01:04 | 40.10217 | -80.37015 | 24379 ft | 484 kts | 136° |
| 2026-04-27 01:05 | 40.07785 | -80.33955 | 24863 ft | 487 kts | 136° |
| 2026-04-27 01:05 | 40.05335 | -80.30882 | 25319 ft | 491 kts | 136° |
| 2026-04-27 01:05 | 40.02862 | -80.27788 | 25813 ft | 494 kts | 136° |
| 2026-04-27 01:05 | 40.00374 | -80.24679 | 26304 ft | 498 kts | 136° |
| 2026-04-27 01:06 | 39.97860 | -80.21541 | 26806 ft | 502 kts | 136° |
| 2026-04-27 01:06 | 39.95331 | -80.18386 | 27312 ft | 505 kts | 136° |
| 2026-04-27 01:06 | 39.92786 | -80.15216 | 27841 ft | 506 kts | 136° |
| 2026-04-27 01:06 | 39.90243 | -80.12050 | 28148 ft | 505 kts | 136° |
| 2026-04-27 01:07 | 39.87709 | -80.08899 | 28187 ft | 505 kts | 136° |
| 2026-04-27 01:07 | 39.82618 | -80.02577 | 28172 ft | 506 kts | 136° |
| 2026-04-27 01:08 | 39.77527 | -79.96270 | 28183 ft | 505 kts | 136° |
| 2026-04-27 01:08 | 39.72442 | -79.89985 | 28185 ft | 505 kts | 136° |
| 2026-04-27 01:09 | 39.67351 | -79.83704 | 28186 ft | 505 kts | 136° |
| 2026-04-27 01:09 | 39.62263 | -79.77441 | 28175 ft | 505 kts | 136° |
| 2026-04-27 01:10 | 39.57165 | -79.71178 | 28183 ft | 505 kts | 136° |
| 2026-04-27 01:10 | 39.52067 | -79.64930 | 28193 ft | 504 kts | 136° |
| 2026-04-27 01:11 | 39.46974 | -79.58700 | 28192 ft | 504 kts | 136° |
| 2026-04-27 01:11 | 39.41922 | -79.52415 | 28204 ft | 504 kts | 134° |
| 2026-04-27 01:12 | 39.37026 | -79.45943 | 28201 ft | 503 kts | 133° |
| 2026-04-27 01:12 | 39.32164 | -79.39442 | 28244 ft | 504 kts | 133° |
| 2026-04-27 01:13 | 39.27343 | -79.33048 | 28006 ft | 483 kts | 133° |
| 2026-04-27 01:13 | 39.25014 | -79.29977 | 27733 ft | 475 kts | 134° |
| 2026-04-27 01:13 | 39.22711 | -79.26946 | 27479 ft | 471 kts | 134° |
| 2026-04-27 01:13 | 39.20420 | -79.23935 | 27260 ft | 470 kts | 134° |
| 2026-04-27 01:14 | 39.18133 | -79.20934 | 27211 ft | 469 kts | 134° |
| 2026-04-27 01:14 | 39.15849 | -79.17939 | 27214 ft | 468 kts | 134° |
| 2026-04-27 01:14 | 39.13568 | -79.14949 | 27216 ft | 467 kts | 134° |
| 2026-04-27 01:14 | 39.11288 | -79.11965 | 27216 ft | 467 kts | 134° |
| 2026-04-27 01:15 | 39.09008 | -79.08983 | 27219 ft | 467 kts | 134° |
| 2026-04-27 01:15 | 39.06738 | -79.05993 | 27218 ft | 467 kts | 131° |
| 2026-04-27 01:15 | 39.04589 | -79.02861 | 27222 ft | 467 kts | 130° |
| 2026-04-27 01:15 | 39.02459 | -78.99706 | 27220 ft | 467 kts | 129° |
| 2026-04-27 01:16 | 39.00341 | -78.96549 | 27220 ft | 467 kts | 129° |
| 2026-04-27 01:16 | 38.98223 | -78.93383 | 27220 ft | 467 kts | 129° |
| 2026-04-27 01:16 | 38.96107 | -78.90216 | 27218 ft | 467 kts | 129° |
| 2026-04-27 01:16 | 38.93994 | -78.87054 | 27221 ft | 467 kts | 129° |
| 2026-04-27 01:17 | 38.91879 | -78.83889 | 27219 ft | 467 kts | 129° |
| 2026-04-27 01:17 | 38.89764 | -78.80726 | 27216 ft | 467 kts | 129° |
| 2026-04-27 01:17 | 38.87648 | -78.77566 | 27218 ft | 467 kts | 129° |
| 2026-04-27 01:17 | 38.85535 | -78.74411 | 27219 ft | 467 kts | 129° |
| 2026-04-27 01:18 | 38.83415 | -78.71250 | 27219 ft | 467 kts | 129° |
| 2026-04-27 01:18 | 38.81294 | -78.68090 | 27231 ft | 467 kts | 129° |
| 2026-04-27 01:18 | 38.79176 | -78.64938 | 27221 ft | 467 kts | 129° |
| 2026-04-27 01:18 | 38.77054 | -78.61784 | 27222 ft | 467 kts | 129° |
| 2026-04-27 01:19 | 38.74935 | -78.58636 | 27223 ft | 466 kts | 129° |
| 2026-04-27 01:19 | 38.72817 | -78.55493 | 27224 ft | 466 kts | 129° |
| 2026-04-27 01:19 | 38.70700 | -78.52354 | 27224 ft | 466 kts | 129° |
| 2026-04-27 01:19 | 38.68578 | -78.49212 | 27223 ft | 466 kts | 129° |
| 2026-04-27 01:20 | 38.66456 | -78.46072 | 27238 ft | 466 kts | 129° |
| 2026-04-27 01:20 | 38.64336 | -78.42940 | 27238 ft | 466 kts | 129° |
| 2026-04-27 01:20 | 38.62213 | -78.39804 | 27238 ft | 466 kts | 129° |
| 2026-04-27 01:20 | 38.60118 | -78.36714 | 27239 ft | 466 kts | 129° |
| 2026-04-27 01:21 | 38.57965 | -78.33541 | 27232 ft | 466 kts | 129° |
| 2026-04-27 01:21 | 38.55840 | -78.30413 | 27236 ft | 466 kts | 129° |
| 2026-04-27 01:21 | 38.53741 | -78.27325 | 27230 ft | 466 kts | 129° |
| 2026-04-27 01:21 | 38.51617 | -78.24205 | 27229 ft | 466 kts | 129° |
| 2026-04-27 01:22 | 38.49490 | -78.21083 | 27223 ft | 465 kts | 129° |
| 2026-04-27 01:22 | 38.47371 | -78.17976 | 27223 ft | 465 kts | 129° |
| 2026-04-27 01:22 | 38.45248 | -78.14866 | 27225 ft | 465 kts | 129° |
| 2026-04-27 01:22 | 38.43124 | -78.11756 | 27225 ft | 465 kts | 129° |
| 2026-04-27 01:23 | 38.40998 | -78.08647 | 27227 ft | 465 kts | 129° |
| 2026-04-27 01:23 | 38.38875 | -78.05546 | 27191 ft | 464 kts | 129° |
| 2026-04-27 01:23 | 38.36756 | -78.02454 | 26886 ft | 462 kts | 129° |
| 2026-04-27 01:23 | 38.34640 | -77.99370 | 26475 ft | 461 kts | 129° |
| 2026-04-27 01:24 | 38.32536 | -77.96305 | 26069 ft | 459 kts | 129° |
| 2026-04-27 01:24 | 38.30441 | -77.93258 | 25684 ft | 456 kts | 129° |
| 2026-04-27 01:24 | 38.28355 | -77.90225 | 25294 ft | 453 kts | 129° |
| 2026-04-27 01:24 | 38.26285 | -77.87219 | 24919 ft | 450 kts | 129° |
| 2026-04-27 01:25 | 38.24229 | -77.84236 | 24534 ft | 447 kts | 129° |
| 2026-04-27 01:25 | 38.22188 | -77.81277 | 24281 ft | 443 kts | 129° |
| 2026-04-27 01:25 | 38.20159 | -77.78338 | 24224 ft | 442 kts | 129° |
| 2026-04-27 01:25 | 38.18130 | -77.75402 | 24222 ft | 441 kts | 129° |
| 2026-04-27 01:26 | 38.16106 | -77.72475 | 24225 ft | 441 kts | 129° |
| 2026-04-27 01:26 | 38.14084 | -77.69555 | 24225 ft | 440 kts | 129° |
| 2026-04-27 01:26 | 38.12058 | -77.66630 | 24225 ft | 440 kts | 129° |
| 2026-04-27 01:26 | 38.10035 | -77.63713 | 24226 ft | 440 kts | 129° |
| 2026-04-27 01:27 | 38.08010 | -77.60796 | 24225 ft | 440 kts | 129° |
| 2026-04-27 01:27 | 38.05984 | -77.57881 | 24230 ft | 441 kts | 129° |
| 2026-04-27 01:27 | 38.03956 | -77.54965 | 24225 ft | 441 kts | 129° |
| 2026-04-27 01:27 | 38.01925 | -77.52047 | 24224 ft | 441 kts | 129° |
| 2026-04-27 01:28 | 37.99895 | -77.49134 | 24226 ft | 441 kts | 129° |
| 2026-04-27 01:28 | 37.97861 | -77.46218 | 24229 ft | 441 kts | 129° |
| 2026-04-27 01:28 | 37.95827 | -77.43303 | 24226 ft | 441 kts | 129° |
| 2026-04-27 01:28 | 37.93797 | -77.40398 | 24227 ft | 440 kts | 129° |
| 2026-04-27 01:29 | 37.91766 | -77.37494 | 24220 ft | 440 kts | 129° |
| 2026-04-27 01:29 | 37.89739 | -77.34598 | 23983 ft | 438 kts | 129° |
| 2026-04-27 01:29 | 37.87725 | -77.31725 | 23585 ft | 434 kts | 129° |
| 2026-04-27 01:29 | 37.85770 | -77.28938 | 23094 ft | 423 kts | 129° |
| 2026-04-27 01:30 | 37.83817 | -77.26157 | 22604 ft | 413 kts | 129° |
| 2026-04-27 01:30 | 37.81953 | -77.23503 | 22127 ft | 405 kts | 129° |
| 2026-04-27 01:30 | 37.80096 | -77.20862 | 21673 ft | 401 kts | 129° |
| 2026-04-27 01:30 | 37.78246 | -77.18230 | 21241 ft | 399 kts | 129° |
| 2026-04-27 01:31 | 37.76407 | -77.15617 | 20841 ft | 397 kts | 129° |
| 2026-04-27 01:31 | 37.74573 | -77.13014 | 20437 ft | 395 kts | 129° |
| 2026-04-27 01:31 | 37.72753 | -77.10432 | 20056 ft | 393 kts | 129° |
| 2026-04-27 01:31 | 37.70939 | -77.07861 | 19666 ft | 391 kts | 129° |
| 2026-04-27 01:32 | 37.69131 | -77.05302 | 19282 ft | 389 kts | 129° |
| 2026-04-27 01:32 | 37.67334 | -77.02760 | 18910 ft | 387 kts | 129° |
| 2026-04-27 01:32 | 37.65546 | -77.00233 | 18532 ft | 385 kts | 129° |
| 2026-04-27 01:32 | 37.63767 | -76.97720 | 18107 ft | 383 kts | 129° |
| 2026-04-27 01:33 | 37.61997 | -76.95222 | 17683 ft | 381 kts | 129° |
| 2026-04-27 01:33 | 37.60239 | -76.92743 | 17266 ft | 378 kts | 129° |
| 2026-04-27 01:33 | 37.58491 | -76.90280 | 16853 ft | 376 kts | 129° |
| 2026-04-27 01:33 | 37.56754 | -76.87834 | 16444 ft | 373 kts | 129° |
| 2026-04-27 01:34 | 37.55027 | -76.85405 | 16086 ft | 371 kts | 129° |
| 2026-04-27 01:34 | 37.53307 | -76.82986 | 15692 ft | 369 kts | 129° |
| 2026-04-27 01:34 | 37.51600 | -76.80588 | 15300 ft | 367 kts | 129° |
| 2026-04-27 01:34 | 37.49898 | -76.78199 | 14915 ft | 365 kts | 129° |
| 2026-04-27 01:35 | 37.48219 | -76.75845 | 14534 ft | 356 kts | 129° |
| 2026-04-27 01:35 | 37.46597 | -76.73545 | 14156 ft | 347 kts | 129° |
| 2026-04-27 01:35 | 37.44790 | -76.71585 | 13746 ft | 342 kts | 148° |
| 2026-04-27 01:35 | 37.42645 | -76.70367 | 13335 ft | 336 kts | 158° |
| 2026-04-27 01:36 | 37.40472 | -76.69379 | 12914 ft | 329 kts | 159° |
| 2026-04-27 01:36 | 37.38332 | -76.68435 | 12503 ft | 323 kts | 159° |
| 2026-04-27 01:36 | 37.36220 | -76.67511 | 12096 ft | 320 kts | 159° |
| 2026-04-27 01:36 | 37.34123 | -76.66598 | 11697 ft | 318 kts | 159° |
| 2026-04-27 01:37 | 37.32035 | -76.65694 | 11306 ft | 317 kts | 159° |
| 2026-04-27 01:37 | 37.29953 | -76.64796 | 10916 ft | 315 kts | 159° |
| 2026-04-27 01:37 | 37.27883 | -76.63909 | 10528 ft | 314 kts | 159° |
| 2026-04-27 01:37 | 37.25818 | -76.63028 | 10162 ft | 313 kts | 159° |
| 2026-04-27 01:38 | 37.23756 | -76.62152 | 9747 ft | 312 kts | 159° |
| 2026-04-27 01:38 | 37.21704 | -76.61286 | 9330 ft | 310 kts | 159° |
| 2026-04-27 01:38 | 37.19662 | -76.60436 | 8919 ft | 308 kts | 159° |
| 2026-04-27 01:38 | 37.17638 | -76.59606 | 8568 ft | 305 kts | 159° |
| 2026-04-27 01:39 | 37.15623 | -76.58795 | 8273 ft | 303 kts | 159° |
| 2026-04-27 01:39 | 37.13618 | -76.58000 | 7977 ft | 301 kts | 159° |
| 2026-04-27 01:39 | 37.11627 | -76.57220 | 7685 ft | 299 kts | 159° |
| 2026-04-27 01:39 | 37.09641 | -76.56454 | 7392 ft | 297 kts | 159° |
| 2026-04-27 01:40 | 37.07668 | -76.55700 | 7106 ft | 296 kts | 159° |
| 2026-04-27 01:40 | 37.05703 | -76.54958 | 6829 ft | 294 kts | 159° |
| 2026-04-27 01:40 | 37.03751 | -76.54231 | 6526 ft | 292 kts | 159° |
| 2026-04-27 01:40 | 37.01808 | -76.53513 | 6221 ft | 290 kts | 159° |
| 2026-04-27 01:41 | 36.99880 | -76.52804 | 5912 ft | 288 kts | 159° |
| 2026-04-27 01:41 | 36.97972 | -76.52107 | 5605 ft | 284 kts | 159° |
| 2026-04-27 01:41 | 36.96088 | -76.51427 | 5299 ft | 277 kts | 159° |
| 2026-04-27 01:41 | 36.94268 | -76.50781 | 5047 ft | 267 kts | 159° |
| 2026-04-27 01:42 | 36.92528 | -76.50164 | 4969 ft | 252 kts | 159° |
| 2026-04-27 01:42 | 36.90903 | -76.49590 | 4981 ft | 234 kts | 159° |
| 2026-04-27 01:42 | 36.89373 | -76.49060 | 4998 ft | 225 kts | 159° |
| 2026-04-27 01:42 | 36.87862 | -76.48532 | 4983 ft | 226 kts | 159° |
| 2026-04-27 01:43 | 36.86351 | -76.48010 | 4989 ft | 226 kts | 160° |
| 2026-04-27 01:43 | 36.84838 | -76.47480 | 4976 ft | 225 kts | 159° |
| 2026-04-27 01:43 | 36.83327 | -76.46949 | 4972 ft | 225 kts | 160° |
| 2026-04-27 01:43 | 36.81841 | -76.46413 | 4986 ft | 225 kts | 159° |
| 2026-04-27 01:44 | 36.80331 | -76.45861 | 4987 ft | 226 kts | 159° |
| 2026-04-27 01:44 | 36.78830 | -76.45325 | 4992 ft | 225 kts | 159° |
| 2026-04-27 01:44 | 36.77328 | -76.44790 | 4726 ft | 223 kts | 159° |
| 2026-04-27 01:44 | 36.75832 | -76.44261 | 4167 ft | 226 kts | 159° |
| 2026-04-27 01:45 | 36.74293 | -76.43743 | 3554 ft | 231 kts | 159° |
| 2026-04-27 01:45 | 36.72875 | -76.42910 | 2938 ft | 222 kts | 133° |
| 2026-04-27 01:45 | 36.72077 | -76.41353 | 2338 ft | 210 kts | 99° |
| 2026-04-27 01:45 | 36.72101 | -76.39637 | 2018 ft | 188 kts | 73° |
| 2026-04-27 01:46 | 36.72407 | -76.38173 | 1955 ft | 161 kts | 70° |
| 2026-04-27 01:46 | 36.72705 | -76.36899 | 1962 ft | 148 kts | 69° |
| 2026-04-27 01:46 | 36.73133 | -76.35777 | 2006 ft | 140 kts | 43° |
| 2026-04-27 01:46 | 36.73883 | -76.35043 | 2316 ft | 138 kts | 36° |
| 2026-04-27 01:47 | 36.74402 | -76.34556 | 2336 ft | 140 kts | 37° |
| 2026-04-27 01:47 | 36.75182 | -76.33810 | 2128 ft | 142 kts | 37° |
| 2026-04-27 01:47 | 36.75968 | -76.33048 | 1994 ft | 144 kts | 37° |
| 2026-04-27 01:47 | 36.76744 | -76.32290 | 1973 ft | 144 kts | 37° |
| 2026-04-27 01:48 | 36.77541 | -76.31513 | 2023 ft | 143 kts | 38° |
| 2026-04-27 01:48 | 36.78327 | -76.30750 | 2027 ft | 142 kts | 38° |
| 2026-04-27 01:48 | 36.79095 | -76.30010 | 1981 ft | 142 kts | 37° |
| 2026-04-27 01:48 | 36.79876 | -76.29256 | 1962 ft | 142 kts | 37° |
| 2026-04-27 01:49 | 36.80656 | -76.28503 | 1965 ft | 141 kts | 37° |
| 2026-04-27 01:49 | 36.81421 | -76.27765 | 1921 ft | 133 kts | 38° |
| 2026-04-27 01:49 | 36.82117 | -76.27090 | 1754 ft | 122 kts | 38° |
| 2026-04-27 01:49 | 36.82783 | -76.26446 | 1579 ft | 121 kts | 36° |
| 2026-04-27 01:50 | 36.83450 | -76.25803 | 1419 ft | 121 kts | 36° |
| 2026-04-27 01:50 | 36.84093 | -76.25181 | 1246 ft | 112 kts | 37° |
| 2026-04-27 01:50 | 36.84695 | -76.24598 | 1095 ft | 109 kts | 37° |
| 2026-04-27 01:50 | 36.85303 | -76.24012 | 951 ft | 112 kts | 36° |
| 2026-04-27 01:51 | 36.85922 | -76.23413 | 788 ft | 113 kts | 37° |
| 2026-04-27 01:51 | 36.86543 | -76.22811 | 634 ft | 113 kts | 37° |
| 2026-04-27 01:51 | 36.87159 | -76.22217 | 497 ft | 110 kts | 38° |
| 2026-04-27 01:51 | 36.87767 | -76.21630 | 303 ft | 111 kts | 38° |
| 2026-04-27 01:52 | 36.88371 | -76.21029 | 154 ft | 110 kts | 37° |
| 2026-04-27 01:52 | 36.88975 | -76.20447 | 51 ft | 108 kts | 36° |
| 2026-04-27 01:52 | 36.89539 | -76.19916 | 22 ft | 94 kts | 36° |
| 2026-04-27 01:52 | 36.90017 | -76.19461 | 8 ft | 79 kts | 40° |
| 2026-04-27 01:53 | 36.90305 | -76.19175 | 6 ft | 21 kts | 38° |
| 2026-04-27 01:53 | 36.90434 | -76.19049 | 4 ft | 26 kts | 37° |
| 2026-04-27 01:53 | 36.90537 | -76.18990 | 3 ft | 9 kts | 345° |
| 2026-04-27 01:53 | 36.90588 | -76.19044 | 5 ft | 10 kts | 310° |
| 2026-04-27 01:54 | 36.90606 | -76.19128 | 5 ft | 11 kts | 245° |
| 2026-04-27 01:54 | 36.90546 | -76.19201 | 6 ft | 13 kts | 217° |
| 2026-04-27 01:54 | 36.90467 | -76.19276 | 6 ft | 15 kts | 217° |
| 2026-04-27 01:54 | 36.90379 | -76.19362 | 6 ft | 17 kts | 218° |
| 2026-04-27 01:55 | 36.90282 | -76.19454 | 6 ft | 18 kts | 218° |
| 2026-04-27 01:55 | 36.90177 | -76.19527 | 6 ft | 17 kts | 206° |
| 2026-04-27 01:55 | 36.90076 | -76.19605 | 6 ft | 18 kts | 218° |
| 2026-04-27 01:55 | 36.89985 | -76.19695 | 7 ft | 16 kts | 218° |
| 2026-04-27 01:56 | 36.89813 | -76.19862 | 7 ft | 16 kts | 217° |
| 2026-04-27 01:56 | 36.89728 | -76.19945 | 8 ft | 15 kts | 218° |
| 2026-04-27 01:56 | 36.89653 | -76.20018 | 7 ft | 10 kts | 218° |
| 2026-04-27 01:57 | 36.89628 | -76.20042 | -7 ft | 2 kts | 218° |
| 2026-04-27 01:57 | 36.89614 | -76.20061 | 8 ft | 4 kts | 236° |
| 2026-04-27 01:57 | 36.89599 | -76.20109 | 7 ft | 7 kts | 266° |
| 2026-04-27 01:57 | 36.89630 | -76.20150 | 6 ft | 0 kts | 327° |
| 2026-04-27 01:58 | 36.89634 | -76.20153 | 6 ft | 0 kts | 325° |